Time;durP1;ratioP1;P1;durP2;ratioP2;P2;SDS_P1;SDS_P2;PMS_P1;PMS_P2;Temp;Humidity;BMP_temperature;BMP_pressure;BME280_temperature;BME280_humidity;BME280_pressure;Samples;Min_cycle;Max_cycle;Signal;HPM_P1;HPM_P2
2023/11/09 00:01:03;;;;;;;12.70;4.20;;;;;;;7.22;98.31;99049.95;272259;1276;22447;-81
2023/11/09 00:07:26;;;;;;;8.90;3.70;;;;;;;7.09;98.43;99049.64;272095;1276;23506;-81
2023/11/09 00:13:30;;;;;;;11.90;4.10;;;;;;;6.91;98.33;99049.94;271961;1276;22333;-80
2023/11/09 00:20:17;;;;;;;8.10;3.70;;;;;;;6.72;98.53;99048.95;272112;1277;22323;-80
2023/11/09 00:26:26;;;;;;;8.30;3.90;;;;;;;6.55;98.93;99048.64;272019;1276;23528;-82
2023/11/09 00:33:12;;;;;;;7.90;3.90;;;;;;;6.39;99.01;99046.96;272715;1273;22187;-80
2023/11/09 00:39:56;;;;;;;10.20;4.20;;;;;;;6.23;98.81;99046.20;272411;1273;23036;-81
2023/11/09 00:46:19;;;;;;;12.80;4.60;;;;;;;6.03;98.86;99047.54;272566;1273;23292;-81
2023/11/09 00:52:22;;;;;;;11.90;4.60;;;;;;;5.78;98.68;99045.08;272627;1273;22163;-81
2023/11/09 00:58:24;;;;;;;11.40;4.40;;;;;;;5.54;98.76;99036.38;272623;1273;22318;-80
2023/11/09 01:04:47;;;;;;;10.20;3.90;;;;;;;5.31;98.99;99034.39;272410;1273;23068;-80
2023/11/09 01:10:49;;;;;;;10.70;4.70;;;;;;;5.09;99.25;99035.36;272410;1273;22197;-81
2023/11/09 01:17:14;;;;;;;9.50;4.40;;;;;;;4.89;99.44;99033.68;272671;1281;22207;-80
2023/11/09 01:23:44;;;;;;;9.40;4.00;;;;;;;4.69;99.70;99036.13;272543;1273;23395;-81
2023/11/09 01:30:07;;;;;;;6.60;3.70;;;;;;;4.54;99.88;99036.21;272570;1281;24165;-81
2023/11/09 01:36:14;;;;;;;9.50;3.80;;;;;;;4.40;99.98;99029.28;272694;1275;23007;-80
2023/11/09 01:42:37;;;;;;;6.40;3.90;;;;;;;4.26;100.00;99018.02;272399;1273;22237;-80
2023/11/09 01:49:21;;;;;;;8.90;3.80;;;;;;;4.11;100.00;99009.52;272792;1281;22279;-81
2023/11/09 01:56:03;;;;;;;6.70;3.60;;;;;;;4.00;100.00;99004.83;271364;1273;22220;-81
2023/11/09 02:02:26;;;;;;;5.90;3.40;;;;;;;3.92;100.00;99004.52;271947;1274;22301;-80
2023/11/09 02:08:29;;;;;;;8.50;4.20;;;;;;;3.85;100.00;99002.34;272250;1273;23509;-82
2023/11/09 02:15:12;;;;;;;5.50;3.20;;;;;;;3.81;100.00;99001.71;272794;1278;22331;-80
2023/11/09 02:21:17;;;;;;;9.60;3.40;;;;;;;3.78;100.00;99005.48;270222;1274;23151;-81
2023/11/09 02:27:43;;;;;;;;;;;;;;;3.79;100.00;99009.37;270258;1273;25222;-82
2023/11/09 02:33:45;;;;;;;6.80;2.10;;;;;;;3.79;100.00;99006.20;270848;1261;120689;-84
2023/11/09 02:39:52;;;;;;;8.30;3.30;;;;;;;3.75;100.00;99000.86;270776;1271;24341;-85
2023/11/09 02:46:37;;;;;;;7.30;3.10;;;;;;;3.64;100.00;98998.58;272034;1272;23481;-85
2023/11/09 02:53:43;;;;;;;10.50;3.10;;;;;;;3.54;100.00;98997.66;272826;1273;22282;-85
2023/11/09 03:00:05;;;;;;;8.10;3.00;;;;;;;3.46;100.00;98999.21;271889;1272;746854;-85
2023/11/09 03:06:56;;;;;;;8.80;3.20;;;;;;;3.36;100.00;98993.09;272900;1264;23049;-85
2023/11/09 03:13:00;;;;;;;4.80;3.20;;;;;;;3.25;100.00;98990.89;272429;1272;22397;-85
2023/11/09 03:19:24;;;;;;;7.20;3.30;;;;;;;3.12;100.00;98988.45;272560;1271;22395;-85
2023/11/09 03:34:02;;;;;;;3.20;2.20;;;;;;;2.88;100.00;98987.38;272684;1271;22373;-85
2023/11/09 03:40:07;;;;;;;5.30;2.80;;;;;;;2.74;100.00;98981.77;272628;1271;22222;-85
2023/11/09 03:46:33;;;;;;;10.40;2.90;;;;;;;2.63;100.00;98983.34;271685;1271;22165;-85
2023/11/09 03:52:56;;;;;;;5.70;2.50;;;;;;;2.56;100.00;98982.73;272799;1277;22209;-85
2023/11/09 03:59:43;;;;;;;8.20;2.90;;;;;;;2.48;100.00;98978.90;271648;1271;22752;-85
2023/11/09 04:05:45;;;;;;;7.40;2.70;;;;;;;2.35;100.00;98979.04;271301;1272;22522;-84
2023/11/09 04:11:49;;;;;;;3.50;2.50;;;;;;;2.23;100.00;98979.70;272560;1269;22966;-84
2023/11/09 04:17:51;;;;;;;4.90;3.20;;;;;;;2.13;100.00;98982.67;272520;1265;22301;-84
2023/11/09 04:24:13;;;;;;;11.80;4.50;;;;;;;2.04;100.00;98985.40;270929;1271;23219;-84
2023/11/09 04:30:40;;;;;;;10.00;4.20;;;;;;;1.92;100.00;98986.98;272276;1271;22160;-85
2023/11/09 04:36:59;;;;;;;9.90;4.90;;;;;;;1.81;100.00;98983.86;272942;1273;22215;-84
2023/11/09 04:43:22;;;;;;;9.10;4.10;;;;;;;1.72;100.00;98979.17;272846;1272;22201;-84
2023/11/09 04:49:24;;;;;;;7.20;4.20;;;;;;;1.63;100.00;98970.16;272658;1271;22961;-83
2023/11/09 04:56:19;;;;;;;10.00;5.40;;;;;;;1.57;100.00;98965.19;272665;1271;22190;-84
2023/11/09 05:08:57;;;;;;;11.40;6.50;;;;;;;1.41;100.00;98956.45;272833;1271;22312;-83
2023/11/09 05:15:39;;;;;;;14.50;8.20;;;;;;;1.31;100.00;98953.29;272735;1271;22208;-84
2023/11/09 05:22:02;;;;;;;16.70;8.60;;;;;;;1.23;100.00;98953.53;272853;1271;22449;-84
2023/11/09 05:28:45;;;;;;;24.40;8.80;;;;;;;1.18;100.00;98953.33;272922;1271;23460;-84
2023/11/09 05:35:30;;;;;;;12.70;8.00;;;;;;;1.15;100.00;98949.05;272601;1271;22400;-84
2023/11/09 05:41:35;;;;;;;9.70;5.90;;;;;;;1.13;100.00;98946.11;273078;1279;22608;-83
2023/11/09 05:47:40;;;;;;;13.30;6.20;;;;;;;1.10;100.00;98946.70;272955;1274;22222;-83
2023/11/09 05:54:42;;;;;;;16.70;7.50;;;;;;;1.06;100.00;98953.94;273149;1271;22192;-84
2023/11/09 06:01:10;;;;;;;14.20;7.60;;;;;;;1.01;100.00;98948.52;272799;1271;22237;-84
2023/11/09 06:07:56;;;;;;;13.60;7.60;;;;;;;1.01;100.00;98950.85;272875;1271;23413;-84
2023/11/09 06:14:49;;;;;;;14.50;7.50;;;;;;;1.07;100.00;98954.52;273033;1272;23193;-84
2023/11/09 06:21:08;;;;;;;18.00;7.30;;;;;;;1.12;100.00;98948.58;272544;1261;22474;-84
2023/11/09 06:27:31;;;;;;;16.80;9.80;;;;;;;1.23;100.00;98942.25;272957;1271;22691;-84
2023/11/09 06:33:36;;;;;;;18.30;9.90;;;;;;;1.40;100.00;98937.27;272717;1271;23221;-85
2023/11/09 06:40:18;;;;;;;14.50;8.10;;;;;;;1.62;100.00;98933.63;272718;1265;22196;-84
2023/11/09 06:53:37;;;;;;;19.20;9.30;;;;;;;2.28;100.00;98931.43;272736;1271;22418;-84
2023/11/09 06:59:47;;;;;;;10.60;7.40;;;;;;;2.65;100.00;98922.04;272744;1271;22211;-84
2023/11/09 07:06:32;;;;;;;24.90;11.60;;;;;;;3.18;100.00;98920.17;273015;1271;22454;-84
2023/11/09 07:12:37;;;;;;;15.80;8.30;;;;;;;3.95;100.00;98923.30;273088;1274;22310;-83
2023/11/09 07:18:40;;;;;;;16.00;8.40;;;;;;;4.60;100.00;98930.52;272973;1271;22308;-84
2023/11/09 07:25:08;;;;;;;20.40;9.10;;;;;;;5.15;100.00;98926.58;272730;1272;22333;-84
2023/11/09 07:31:20;;;;;;;26.40;8.60;;;;;;;5.89;100.00;98928.80;272270;1271;22234;-84
2023/11/09 07:37:22;;;;;;;29.30;9.20;;;;;;;6.61;100.00;98922.35;272586;1271;22230;-84
2023/11/09 07:43:25;;;;;;;28.10;8.50;;;;;;;7.17;100.00;98913.23;272819;1267;23153;-84
2023/11/09 07:49:47;;;;;;;21.50;8.80;;;;;;;7.87;100.00;98911.04;273014;1271;22248;-84
2023/11/09 07:56:14;;;;;;;28.70;8.60;;;;;;;8.71;100.00;98903.75;273041;1272;22145;-85
2023/11/09 08:02:36;;;;;;;12.50;4.80;;;;;;;9.29;100.00;98893.67;272981;1272;22197;-85
2023/11/09 08:08:37;;;;;;;15.10;6.20;;;;;;;10.10;100.00;98886.13;272919;1271;22208;-85
2023/11/09 08:15:01;;;;;;;16.50;6.20;;;;;;;11.04;100.00;98885.45;273198;1272;22895;-85
2023/11/09 08:21:04;;;;;;;13.50;4.80;;;;;;;11.80;100.00;98877.16;272965;1271;23014;-84
2023/11/09 08:27:30;;;;;;;11.70;4.10;;;;;;;12.40;100.00;98871.40;273259;1272;22249;-86
2023/11/09 08:33:32;;;;;;;5.90;1.80;;;;;;;12.66;98.97;98862.48;273021;1271;22311;-87
2023/11/09 08:39:35;;;;;;;4.80;2.00;;;;;;;12.77;94.55;98859.36;272171;1272;22549;-87
2023/11/09 08:45:36;;;;;;;2.60;1.20;;;;;;;13.03;91.85;98857.48;270987;1271;24066;-86
2023/11/09 08:52:11;;;;;;;3.20;1.40;;;;;;;13.22;88.47;98857.86;271766;1271;22179;-87
2023/11/09 09:00:18;;;;;;;2.60;1.20;;;;;;;13.61;86.73;98852.52;271736;1285;22252;-86
2023/11/09 09:06:25;;;;;;;3.90;1.50;;;;;;;14.17;84.26;98851.64;271318;1281;22416;-87
2023/11/09 09:44:22;;;;;;;2.70;1.40;;;;;;;14.74;68.06;98807.59;271159;1283;23185;-87
2023/11/09 10:22:56;;;;;;;4.20;1.30;;;;;;;15.98;62.83;98757.88;269443;1292;22255;-87
2023/11/09 10:44:31;;;;;;;3.40;1.50;;;;;;;15.73;60.56;98728.66;272246;1272;23121;-87
2023/11/09 10:50:44;;;;;;;3.00;0.90;;;;;;;15.45;59.56;98724.05;272197;1272;23348;-86
2023/11/09 10:56:47;;;;;;;2.00;1.20;;;;;;;15.15;59.27;98719.83;271958;1272;22534;-86
2023/11/09 11:02:52;;;;;;;2.40;0.90;;;;;;;14.88;59.47;98725.17;272201;1272;22231;-86
2023/11/09 11:08:56;;;;;;;3.40;1.40;;;;;;;14.69;59.33;98720.24;272272;1271;22224;-86
2023/11/09 11:14:59;;;;;;;1.70;0.60;;;;;;;14.70;58.65;98718.43;272076;1273;22455;-86
2023/11/09 11:29:48;;;;;;;1.00;0.50;;;;;;;14.68;57.05;98707.73;273170;1279;22694;-87
2023/11/09 11:37:25;;;;;;;1.60;0.80;;;;;;;14.56;56.99;98700.86;271805;1280;22461;-86
2023/11/09 11:43:53;;;;;;;1.60;0.60;;;;;;;14.47;56.82;98701.58;272865;1280;22499;-87
2023/11/09 11:50:17;;;;;;;1.30;0.80;;;;;;;14.42;56.49;98695.02;272797;1280;22234;-88
2023/11/09 11:56:44;;;;;;;3.00;0.80;;;;;;;14.30;56.07;98686.39;272699;1274;22186;-89
2023/11/09 12:02:51;;;;;;;0.90;0.50;;;;;;;14.19;54.10;98676.14;272669;1277;23576;-86
2023/11/09 12:09:15;;;;;;;1.80;0.80;;;;;;;14.14;55.06;98674.45;272861;1277;22178;-88
2023/11/09 12:15:20;;;;;;;1.50;0.60;;;;;;;14.16;55.34;98665.70;272831;1275;22268;-87
2023/11/09 12:21:27;;;;;;;1.80;0.70;;;;;;;14.18;55.41;98660.42;272899;1280;22315;-86
2023/11/09 12:28:12;;;;;;;1.60;1.00;;;;;;;14.15;55.54;98654.70;272801;1275;22178;-87
2023/11/09 12:34:17;;;;;;;1.70;0.90;;;;;;;14.16;55.69;98644.80;272350;1274;22206;-87
2023/11/09 12:41:01;;;;;;;2.30;1.30;;;;;;;14.14;55.99;98638.60;272820;1274;22370;-86
2023/11/09 12:47:25;;;;;;;2.50;1.00;;;;;;;14.08;56.49;98630.23;272558;1274;22196;-86
2023/11/09 12:53:28;;;;;;;2.50;1.30;;;;;;;13.97;56.99;98620.58;272390;1273;22257;-87
2023/11/09 12:59:33;;;;;;;1.80;1.10;;;;;;;13.91;56.49;98609.94;272500;1273;22192;-87
2023/11/09 13:05:39;;;;;;;2.20;1.20;;;;;;;13.87;56.27;98605.02;272421;1274;23049;-86
2023/11/09 13:11:42;;;;;;;2.20;1.00;;;;;;;13.86;55.67;98600.85;272534;1274;22421;-86
2023/11/09 13:17:53;;;;;;;1.50;0.70;;;;;;;13.81;55.28;98598.08;272381;1273;22569;-87
2023/11/09 13:24:05;;;;;;;3.30;0.80;;;;;;;13.76;55.06;98589.46;272775;1273;23346;-86
2023/11/09 13:30:07;;;;;;;1.30;1.00;;;;;;;13.69;54.37;98586.85;272268;1273;22342;-86
2023/11/09 13:44:36;;;;;;;1.50;0.90;;;;;;;13.55;54.31;98587.11;272943;1272;22215;-86
2023/11/09 13:51:28;;;;;;;2.90;0.90;;;;;;;13.50;54.32;98580.15;272767;1275;22206;-86
2023/11/09 13:57:40;;;;;;;4.00;1.70;;;;;;;13.45;54.40;98567.61;272760;1275;22304;-86
2023/11/09 14:04:06;;;;;;;4.40;1.60;;;;;;;13.36;54.78;98558.17;272678;1277;22327;-87
2023/11/09 14:10:11;;;;;;;3.40;1.60;;;;;;;13.22;55.10;98555.84;272725;1280;22190;-85
2023/11/09 14:17:31;;;;;;;4.00;1.90;;;;;;;13.05;55.96;98551.53;272902;1275;23647;-85
2023/11/09 14:24:07;;;;;;;4.20;1.70;;;;;;;12.75;56.75;98550.56;272374;1257;22355;-86
2023/11/09 14:30:13;;;;;;;2.70;1.60;;;;;;;12.50;57.49;98545.80;272671;1278;22855;-85
2023/11/09 14:37:36;;;;;;;5.10;1.80;;;;;;;12.08;58.22;98544.60;271952;1276;23932;-85
2023/11/09 14:43:38;;;;;;;11.80;3.60;;;;;;;11.69;60.04;98545.96;271777;1276;23297;-85
2023/11/09 14:50:04;;;;;;;8.40;2.60;;;;;;;11.38;61.07;98542.42;271914;1277;22251;-86
2023/11/09 14:56:26;;;;;;;5.20;2.00;;;;;;;11.06;61.87;98540.98;272097;1278;23073;-85
2023/11/09 15:03:18;;;;;;;10.60;3.00;;;;;;;10.69;62.79;98533.84;271904;1277;22265;-85
2023/11/09 15:09:50;;;;;;;11.10;3.30;;;;;;;10.35;63.91;98533.63;272790;1274;22277;-85
2023/11/09 15:16:36;;;;;;;12.60;3.20;;;;;;;10.03;64.66;98527.98;272809;1280;22189;-85
2023/11/09 15:23:02;;;;;;;11.90;4.10;;;;;;;9.66;65.08;98530.92;272864;1267;22220;-85
2023/11/09 15:29:30;;;;;;;45.80;13.20;;;;;;;9.25;65.46;98533.89;272830;1273;22651;-85
2023/11/09 15:35:34;;;;;;;35.60;16.20;;;;;;;8.99;66.41;98542.83;272394;1274;22765;-85
2023/11/09 15:42:06;;;;;;;55.90;11.60;;;;;;;8.82;67.17;98541.33;272646;1273;22282;-85
2023/11/09 15:49:07;;;;;;;58.30;12.10;;;;;;;8.41;68.16;98542.48;272908;1271;22182;-85
2023/11/09 16:02:56;;;;;;;31.50;12.90;;;;;;;7.71;69.82;98549.44;272174;1270;22781;-85
2023/11/09 16:09:39;;;;;;;32.40;9.30;;;;;;;7.53;71.18;98553.29;272426;1277;22674;-85
2023/11/09 16:16:04;;;;;;;26.40;10.10;;;;;;;7.37;71.98;98559.00;272086;1276;23155;-85
2023/11/09 16:22:12;;;;;;;36.10;14.70;;;;;;;7.16;72.04;98561.74;272583;1277;22224;-85
2023/11/09 16:28:35;;;;;;;26.40;13.70;;;;;;;6.95;72.69;98569.46;272949;1280;22620;-85
2023/11/09 16:34:58;;;;;;;25.00;10.50;;;;;;;6.75;73.50;98571.25;272745;1277;22231;-85
2023/11/09 16:41:15;;;;;;;19.80;10.90;;;;;;;6.60;74.01;98571.50;272732;1276;22230;-85
2023/11/09 16:48:06;;;;;;;32.80;15.20;;;;;;;6.50;74.28;98573.94;272445;1267;23274;-85
2023/11/09 16:54:23;;;;;;;27.30;13.70;;;;;;;6.49;76.45;98576.96;271077;1273;22561;-85
2023/11/09 17:00:24;;;;;;;32.60;17.10;;;;;;;6.55;77.21;98577.16;272234;1273;22221;-85
2023/11/09 17:07:10;;;;;;;26.40;13.40;;;;;;;6.63;77.38;98572.88;272993;1279;22353;-85
2023/11/09 17:13:37;;;;;;;30.50;14.50;;;;;;;6.70;77.38;98574.73;272785;1273;22305;-85
2023/11/09 17:20:20;;;;;;;19.50;10.10;;;;;;;6.75;77.51;98569.55;272822;1277;22210;-85
2023/11/09 17:27:02;;;;;;;28.30;13.80;;;;;;;6.81;76.93;98566.86;272642;1273;22336;-85
2023/11/09 17:33:06;;;;;;;29.00;15.20;;;;;;;6.84;76.66;98567.55;272769;1275;22247;-86
2023/11/09 17:39:51;;;;;;;31.40;15.50;;;;;;;6.84;77.16;98564.29;272661;1273;22171;-85
2023/11/09 17:46:31;;;;;;;33.60;15.10;;;;;;;6.81;77.44;98566.10;271786;1273;22205;-85
2023/11/09 17:52:34;;;;;;;21.30;12.60;;;;;;;6.66;77.87;98550.17;272125;1272;22475;-85
2023/11/09 17:58:39;;;;;;;28.10;15.30;;;;;;;6.54;78.83;98541.23;271457;1273;24118;-85
2023/11/09 18:05:41;;;;;;;23.30;12.70;;;;;;;6.35;78.54;98548.70;272360;1273;23409;-84
2023/11/09 18:12:36;;;;;;;25.30;11.00;;;;;;;6.06;79.06;98551.66;272492;1273;22247;-85
2023/11/09 18:26:11;;;;;;;31.30;12.50;;;;;;;5.69;79.41;98544.30;271732;1268;22539;-84
2023/11/09 18:32:13;;;;;;;32.50;15.70;;;;;;;5.57;79.54;98546.95;272312;1267;22743;-86
2023/11/09 18:38:15;;;;;;;50.40;20.90;;;;;;;5.38;79.54;98546.27;272321;1273;22281;-85
2023/11/09 18:44:21;;;;;;;32.20;17.10;;;;;;;5.19;79.74;98540.84;272535;1273;22201;-85
2023/11/09 19:47:16;;;;;;;68.50;30.40;;;;;;;4.26;85.66;98521.63;268801;1293;22411;-85
2023/11/09 19:54:02;;;;;;;65.60;31.20;;;;;;;4.09;85.75;98520.20;270164;1286;23701;-85
2023/11/09 20:32:47;;;;;;;69.20;37.00;;;;;;;3.35;87.35;98500.01;272134;1283;22241;-85
2023/11/09 21:27:36;;;;;;;50.00;27.30;;;;;;;3.45;90.72;98437.47;270845;1289;22244;-85
2023/11/09 22:05:48;;;;;;;;;;;;;;;4.43;93.50;98398.36;269575;1296;22463;-85
2023/11/09 22:29:19;;;;;;;15.40;7.20;;;;;;;5.28;92.79;98377.89;272334;1277;23242;-86
2023/11/09 23:54:13;;;;;;;15.70;6.80;;;;;;;7.42;85.10;98350.34;272524;1280;22184;-86
